createdAt,value
2023-04-17T00:00:36.677Z,100688.22
2023-04-17T00:03:03.840Z,100694.56
2023-04-17T00:05:31.963Z,100699.59
2023-04-17T00:08:00.117Z,100692.84
2023-04-17T00:10:27.455Z,100691.13
2023-04-17T00:12:54.468Z,100699.25
2023-04-17T00:15:21.477Z,100687.78
2023-04-17T00:17:51.438Z,100691.41
2023-04-17T00:20:18.539Z,100690.56
2023-04-17T00:22:45.851Z,100697.97
2023-04-17T00:25:14.843Z,100683.81
2023-04-17T00:27:42.995Z,100692.69
2023-04-17T00:30:10.722Z,100694.88
2023-04-17T00:32:37.802Z,100692.59
2023-04-17T00:35:05.393Z,100694.25
2023-04-17T00:37:32.342Z,100690.84
2023-04-17T00:39:59.345Z,100689.53
2023-04-17T00:42:26.322Z,100702.59
2023-04-17T00:44:53.318Z,100704.13
2023-04-17T00:47:22.692Z,100700.06
2023-04-17T00:49:51.025Z,100701.16
2023-04-17T00:52:27.855Z,100707.13
2023-04-17T00:54:58.095Z,100704.47
2023-04-17T00:57:25.509Z,100703.38
2023-04-17T00:59:52.813Z,100708.41
2023-04-17T01:02:19.927Z,100714.94
2023-04-17T01:04:47.002Z,100713.56
2023-04-17T01:07:13.992Z,100714.25
2023-04-17T01:09:41.547Z,100717.34
2023-04-17T01:12:23.718Z,100712.69
2023-04-17T01:14:55.626Z,100717.13
2023-04-17T01:17:26.214Z,100717.56
2023-04-17T01:19:54.048Z,100722.06
2023-04-17T01:22:21.424Z,100720.81
2023-04-17T01:24:49.220Z,100712.03
2023-04-17T01:27:16.214Z,100709.41
2023-04-17T01:29:43.792Z,100720.13
2023-04-17T01:34:57.206Z,100705.25
2023-04-17T01:37:24.180Z,100713.41
2023-04-17T01:39:51.147Z,100718.84
2023-04-17T01:42:18.184Z,100715.38
2023-04-17T01:44:45.941Z,100719.06
2023-04-17T01:47:12.992Z,100713.56
2023-04-17T01:49:40.061Z,100714.94
2023-04-17T01:52:07.188Z,100722.56
2023-04-17T01:54:34.143Z,100720.97
2023-04-17T01:57:01.369Z,100716.75
2023-04-17T01:59:28.412Z,100725.69
2023-04-17T02:01:57.164Z,100722.47
2023-04-17T02:04:24.512Z,100716.09
2023-04-17T02:06:51.563Z,100722.69
2023-04-17T02:09:18.877Z,100727.66
2023-04-17T02:11:45.903Z,100720.16
2023-04-17T02:14:12.865Z,100722.28
2023-04-17T02:16:45.713Z,100730.81
2023-04-17T02:19:13.721Z,100724.97
2023-04-17T02:21:41.199Z,100728.31
2023-04-17T02:24:08.284Z,100723.06
2023-04-17T02:26:37.014Z,100733.25
2023-04-17T02:29:04.039Z,100723.16
2023-04-17T02:31:31.662Z,100730.72
2023-04-17T02:33:58.690Z,100730.81
2023-04-17T02:36:27.234Z,100723.38
2023-04-17T02:38:54.198Z,100733.47
2023-04-17T02:41:22.013Z,100733.59
2023-04-17T02:43:48.983Z,100724.41
2023-04-17T02:46:16.085Z,100727.22
2023-04-17T02:48:43.108Z,100735.03
2023-04-17T02:51:10.102Z,100741.97
2023-04-17T02:53:37.107Z,100747.63
2023-04-17T02:56:04.435Z,100727.72
2023-04-17T02:58:31.888Z,100734.41
2023-04-17T03:01:03.501Z,100739.66
2023-04-17T03:03:35.096Z,100733.06
2023-04-17T03:06:02.838Z,100745.09
2023-04-17T03:08:32.581Z,100737.75
2023-04-17T03:11:00.048Z,100745.47
2023-04-17T03:13:27.044Z,100746.88
2023-04-17T03:15:54.284Z,100747.22
2023-04-17T03:18:21.269Z,100748.69
2023-04-17T03:20:48.261Z,100752.00
2023-04-17T03:23:15.428Z,100755.47
2023-04-17T03:25:42.726Z,100761.16
2023-04-17T03:28:09.790Z,100760.03
2023-04-17T03:30:36.769Z,100763.06
2023-04-17T03:33:03.935Z,100764.34
2023-04-17T03:35:31.362Z,100764.34
2023-04-17T03:37:58.436Z,100760.66
2023-04-17T03:40:25.499Z,100764.13
2023-04-17T03:42:52.911Z,100764.50
2023-04-17T03:45:20.011Z,100757.03
2023-04-17T03:47:47.999Z,100767.63
2023-04-17T03:50:15.354Z,100769.59
2023-04-17T03:52:43.366Z,100774.56
2023-04-17T03:55:11.459Z,100774.09
2023-04-17T03:57:38.612Z,100769.91
2023-04-17T04:00:08.441Z,100776.75
2023-04-17T04:02:35.549Z,100777.06
2023-04-17T04:05:03.204Z,100788.91
2023-04-17T04:07:30.234Z,100780.97
2023-04-17T04:09:57.299Z,100793.72
2023-04-17T04:12:25.034Z,100793.53
2023-04-17T04:14:52.037Z,100790.78
2023-04-17T04:17:19.097Z,100796.00
2023-04-17T04:19:46.494Z,100807.13
2023-04-17T04:22:13.760Z,100800.81
2023-04-17T04:24:40.985Z,100798.91
2023-04-17T04:27:09.286Z,100802.91
2023-04-17T04:29:37.863Z,100810.19
2023-04-17T04:32:05.425Z,100804.16
2023-04-17T04:34:33.218Z,100808.16
2023-04-17T04:37:00.226Z,100818.31
2023-04-17T04:39:29.987Z,100821.78
2023-04-17T04:42:05.852Z,100813.88
2023-04-17T04:44:32.902Z,100816.06
2023-04-17T04:46:59.943Z,100823.03
2023-04-17T04:49:27.258Z,100819.34
2023-04-17T04:51:54.571Z,100830.66
2023-04-17T04:54:21.594Z,100828.09
2023-04-17T04:56:49.065Z,100835.69
2023-04-17T04:59:16.054Z,100833.16
2023-04-17T05:01:44.896Z,100823.97
2023-04-17T05:04:12.088Z,100828.47
2023-04-17T05:06:39.265Z,100831.34
2023-04-17T05:09:07.035Z,100826.94
2023-04-17T05:11:34.475Z,100827.97
2023-04-17T05:14:01.592Z,100818.31
2023-04-17T05:16:28.656Z,100826.22
2023-04-17T05:18:56.570Z,100829.41
2023-04-17T05:21:23.632Z,100820.25
2023-04-17T05:23:50.820Z,100828.50
2023-04-17T05:26:17.906Z,100822.88
2023-04-17T05:28:45.420Z,100829.38
2023-04-17T05:31:12.465Z,100832.13
2023-04-17T05:33:39.493Z,100835.53
2023-04-17T05:36:07.595Z,100832.31
2023-04-17T05:38:34.618Z,100840.13
2023-04-17T05:41:02.181Z,100844.81
2023-04-17T05:43:29.270Z,100838.66
2023-04-17T05:45:56.346Z,100840.25
2023-04-17T05:48:23.415Z,100835.78
2023-04-17T05:50:50.436Z,100844.41
2023-04-17T05:53:17.732Z,100827.97
2023-04-17T05:55:44.718Z,100837.81
2023-04-17T05:58:23.298Z,100842.66
2023-04-17T06:00:52.487Z,100841.22
2023-04-17T06:03:20.913Z,100826.56
2023-04-17T06:05:48.419Z,100835.44
2023-04-17T06:08:15.616Z,100823.03
2023-04-17T06:10:45.766Z,100830.63
2023-04-17T06:13:12.904Z,100844.66
2023-04-17T06:15:39.886Z,100848.81
2023-04-17T06:18:06.993Z,100856.13
2023-04-17T06:20:34.239Z,100855.84
2023-04-17T06:23:01.361Z,100858.84
2023-04-17T06:25:28.366Z,100864.75
2023-04-17T06:27:55.478Z,100863.56
2023-04-17T06:30:22.459Z,100864.19
2023-04-17T06:32:49.487Z,100853.84
2023-04-17T06:35:16.604Z,100863.75
2023-04-17T06:37:43.601Z,100864.06
2023-04-17T06:40:12.465Z,100866.78
2023-04-17T06:42:39.696Z,100865.59
2023-04-17T06:45:07.390Z,100863.38
2023-04-17T06:47:34.436Z,100867.22
2023-04-17T06:50:01.572Z,100856.63
2023-04-17T06:52:28.565Z,100859.72
2023-04-17T06:54:56.403Z,100865.41
2023-04-17T06:57:23.422Z,100869.75
2023-04-17T06:59:50.439Z,100875.50
2023-04-17T07:02:18.065Z,100878.28
2023-04-17T07:04:45.189Z,100885.94
2023-04-17T07:07:12.352Z,100874.66
2023-04-17T07:09:39.346Z,100888.00
2023-04-17T07:12:06.524Z,100884.22
2023-04-17T07:14:33.647Z,100885.25
2023-04-17T07:17:01.347Z,100881.97
2023-04-17T07:19:28.420Z,100891.34
2023-04-17T07:21:56.419Z,100895.94
2023-04-17T07:24:23.378Z,100896.13
2023-04-17T07:26:50.394Z,100901.66
2023-04-17T07:29:20.539Z,100904.88
2023-04-17T07:31:47.853Z,100909.97
2023-04-17T07:34:14.895Z,100904.09
2023-04-17T07:36:41.875Z,100910.31
2023-04-17T07:39:08.858Z,100909.38
2023-04-17T07:41:36.147Z,100903.59
2023-04-17T07:44:03.646Z,100902.38
2023-04-17T07:46:30.777Z,100909.50
2023-04-17T07:48:58.773Z,100905.19
2023-04-17T07:51:26.255Z,100909.16
2023-04-17T07:53:53.465Z,100917.47
2023-04-17T07:56:20.406Z,100906.31
2023-04-17T07:58:47.437Z,100914.28
2023-04-17T08:01:15.248Z,100922.75
2023-04-17T08:03:45.158Z,100922.03
2023-04-17T08:06:12.429Z,100913.41
2023-04-17T08:08:39.521Z,100912.44
2023-04-17T08:11:06.813Z,100920.34
2023-04-17T08:13:33.855Z,100922.78
2023-04-17T08:16:01.548Z,100922.25
2023-04-17T08:18:28.617Z,100928.91
2023-04-17T08:20:55.660Z,100923.75
2023-04-17T08:23:22.730Z,100933.81
2023-04-17T08:25:49.924Z,100928.88
2023-04-17T08:28:17.050Z,100940.91
2023-04-17T08:30:44.143Z,100931.13
2023-04-17T08:33:13.536Z,100934.66
2023-04-17T08:35:40.737Z,100937.06
2023-04-17T08:38:33.575Z,100942.63
2023-04-17T08:41:51.996Z,100941.84
2023-04-17T08:44:24.125Z,100950.94
2023-04-17T08:46:51.916Z,100942.25
2023-04-17T08:49:19.258Z,100937.16
2023-04-17T08:51:47.273Z,100945.50
2023-04-17T08:54:14.333Z,100946.81
2023-04-17T08:56:41.316Z,100956.97
2023-04-17T08:59:08.343Z,100957.25
2023-04-17T09:01:35.890Z,100945.84
2023-04-17T09:04:03.257Z,100945.81
2023-04-17T09:06:53.003Z,100947.88
2023-04-17T09:09:20.117Z,100955.28
2023-04-17T09:12:12.728Z,100955.75
2023-04-17T09:14:40.055Z,100958.69
2023-04-17T09:17:07.440Z,100951.97
2023-04-17T09:19:35.278Z,100942.63
2023-04-17T09:22:22.463Z,100960.69
2023-04-17T09:24:49.622Z,100953.00
2023-04-17T09:27:24.174Z,100964.44
2023-04-17T09:30:03.912Z,100967.88
2023-04-17T09:32:33.492Z,100975.25
2023-04-17T09:35:03.888Z,100971.00
2023-04-17T09:37:55.030Z,100967.66
2023-04-17T09:40:25.106Z,100965.66
2023-04-17T09:43:01.078Z,100962.94
2023-04-17T09:45:35.637Z,100964.44
2023-04-17T09:48:11.668Z,100966.03
2023-04-17T09:50:39.978Z,100948.59
2023-04-17T09:53:08.360Z,100964.28
2023-04-17T09:55:38.203Z,100967.53
2023-04-17T09:58:07.528Z,100961.00
2023-04-17T10:00:36.618Z,100957.53
2023-04-17T10:03:04.672Z,100968.72
2023-04-17T10:05:32.620Z,100964.44
2023-04-17T10:07:59.965Z,100977.09
2023-04-17T10:10:34.967Z,100967.06
2023-04-17T10:13:08.180Z,100985.13
2023-04-17T10:15:36.226Z,100974.53
2023-04-17T10:18:24.474Z,100983.38
2023-04-17T10:20:53.628Z,100976.75
2023-04-17T10:23:35.066Z,100979.72
2023-04-17T10:26:28.083Z,100982.50
2023-04-17T10:28:57.888Z,100966.56
2023-04-17T10:32:10.139Z,100969.84
2023-04-17T10:34:38.136Z,100973.81
2023-04-17T10:37:05.420Z,100958.44
2023-04-17T10:39:54.648Z,100968.88
2023-04-17T10:42:23.682Z,100962.41
2023-04-17T10:44:55.825Z,100964.31
2023-04-17T10:47:29.982Z,100954.38
2023-04-17T10:49:59.263Z,100949.75
2023-04-17T10:52:32.319Z,100956.88
2023-04-17T10:55:23.703Z,100956.72
2023-04-17T10:58:11.979Z,100962.09
2023-04-17T11:00:50.860Z,100956.50
2023-04-17T11:03:18.432Z,100954.06
2023-04-17T11:05:47.041Z,100958.63
2023-04-17T11:08:15.040Z,100943.81
2023-04-17T11:10:42.143Z,100951.19
2023-04-17T11:13:10.494Z,100948.94
2023-04-17T11:15:37.480Z,100947.88
2023-04-17T11:18:04.717Z,100945.88
2023-04-17T11:20:36.335Z,100948.22
2023-04-17T11:23:05.453Z,100963.44
2023-04-17T11:25:34.474Z,100957.94
2023-04-17T11:28:06.470Z,100953.41
2023-04-17T11:30:35.963Z,100955.41
2023-04-17T11:33:08.178Z,100955.03
2023-04-17T11:35:43.379Z,100943.88
2023-04-17T11:38:23.373Z,100945.25
2023-04-17T11:40:53.031Z,100930.84
2023-04-17T11:43:22.454Z,100942.09
2023-04-17T11:45:58.563Z,100955.53
2023-04-17T11:48:28.609Z,100950.13
2023-04-17T11:51:05.101Z,100950.47
2023-04-17T11:53:36.254Z,100951.19
2023-04-17T11:56:18.016Z,100959.94
2023-04-17T11:58:52.689Z,100950.34
2023-04-17T12:01:25.548Z,100948.69
2023-04-17T12:03:58.156Z,100937.16
2023-04-17T12:06:37.024Z,100940.88
2023-04-17T12:09:04.530Z,100944.22
2023-04-17T12:11:33.420Z,100954.03
2023-04-17T12:14:02.255Z,100953.41
2023-04-17T12:16:30.186Z,100953.75
2023-04-17T12:18:57.802Z,100958.03
2023-04-17T12:21:24.878Z,100957.28
2023-04-17T12:23:52.144Z,100956.91
2023-04-17T12:26:19.175Z,100960.38
2023-04-17T12:28:46.296Z,100960.16
2023-04-17T12:31:13.520Z,100965.69
2023-04-17T12:33:40.634Z,100957.50
2023-04-17T12:36:08.635Z,100962.06
2023-04-17T12:38:36.164Z,100968.38
2023-04-17T12:41:03.234Z,100970.59
2023-04-17T12:43:33.151Z,100965.69
2023-04-17T12:46:00.407Z,100952.94
2023-04-17T12:48:27.580Z,100969.25
2023-04-17T12:50:54.706Z,100969.25
2023-04-17T12:53:21.972Z,100973.84
2023-04-17T12:55:48.993Z,100971.53
2023-04-17T12:58:16.552Z,100960.03
2023-04-17T13:00:44.376Z,100974.03
2023-04-17T13:03:12.266Z,100971.78
2023-04-17T13:05:39.865Z,100971.75
2023-04-17T13:08:12.454Z,100972.13
2023-04-17T13:10:39.568Z,100976.41
2023-04-17T13:13:06.850Z,100974.84
2023-04-17T13:15:34.208Z,100963.66
2023-04-17T13:18:02.319Z,100962.16
2023-04-17T13:20:29.739Z,100965.81
2023-04-17T13:22:58.903Z,100965.47
2023-04-17T13:25:26.312Z,100963.06
2023-04-17T13:27:55.185Z,100966.06
2023-04-17T13:30:22.914Z,100968.91
2023-04-17T13:32:50.089Z,100967.19
2023-04-17T13:35:17.398Z,100969.50
2023-04-17T13:37:44.392Z,100950.06
2023-04-17T13:40:12.065Z,100953.84
2023-04-17T13:42:39.074Z,100958.53
2023-04-17T13:45:07.449Z,100951.13
2023-04-17T13:47:34.654Z,100962.25
2023-04-17T13:50:01.765Z,100963.25
2023-04-17T13:52:28.927Z,100967.47
2023-04-17T13:54:55.958Z,100970.63
2023-04-17T13:57:23.019Z,100982.19
2023-04-17T13:59:50.029Z,100972.22
2023-04-17T14:02:17.171Z,100973.56
2023-04-17T14:04:44.334Z,100974.06
2023-04-17T14:07:12.868Z,100972.69
2023-04-17T14:09:39.942Z,100973.19
2023-04-17T14:12:07.093Z,100960.66
2023-04-17T14:14:34.182Z,100969.38
2023-04-17T14:17:01.429Z,100961.13
2023-04-17T14:19:28.690Z,100963.47
2023-04-17T14:21:55.725Z,100954.47
2023-04-17T14:24:22.825Z,100963.00
2023-04-17T14:26:49.845Z,100961.44
2023-04-17T14:29:16.869Z,100951.38
2023-04-17T14:31:43.948Z,100952.59
2023-04-17T14:34:11.005Z,100950.81
2023-04-17T14:36:38.100Z,100958.03
2023-04-17T14:39:05.164Z,100959.00
2023-04-17T14:41:34.214Z,100969.50
2023-04-17T14:44:01.553Z,100968.84
2023-04-17T14:46:28.700Z,100970.47
2023-04-17T14:48:56.403Z,100963.88
2023-04-17T14:51:27.376Z,100983.28
2023-04-17T14:53:54.718Z,100955.31
2023-04-17T14:56:22.061Z,100967.28
2023-04-17T14:58:49.306Z,100971.19
2023-04-17T15:01:16.340Z,100970.34
2023-04-17T15:03:46.697Z,100970.38
2023-04-17T15:06:15.702Z,100980.28
2023-04-17T15:08:42.777Z,100980.69
2023-04-17T15:11:10.499Z,100984.31
2023-04-17T15:13:39.509Z,100979.28
2023-04-17T15:16:09.054Z,100986.81
2023-04-17T15:18:36.310Z,100976.94
2023-04-17T15:21:03.426Z,100981.00
2023-04-17T15:23:30.446Z,100980.41
2023-04-17T15:25:58.220Z,100962.75
2023-04-17T15:28:25.634Z,100980.38
2023-04-17T15:30:53.254Z,100974.13
2023-04-17T15:33:20.515Z,100977.28
2023-04-17T15:35:47.669Z,100967.31
2023-04-17T15:38:14.655Z,100967.31
2023-04-17T15:40:41.658Z,100968.56
2023-04-17T15:43:10.758Z,100960.16
2023-04-17T15:45:37.903Z,100965.44
2023-04-17T15:48:05.191Z,100970.47
2023-04-17T15:50:34.196Z,100967.72
2023-04-17T15:53:01.391Z,100978.47
2023-04-17T15:55:28.460Z,100974.56
2023-04-17T15:57:56.118Z,100977.41
2023-04-17T16:00:23.300Z,100974.97
2023-04-17T16:02:52.045Z,100975.34
2023-04-17T16:05:19.742Z,100987.25
2023-04-17T16:07:47.228Z,100970.34
2023-04-17T16:10:14.742Z,100980.19
2023-04-17T16:12:43.362Z,100975.66
2023-04-17T16:15:16.720Z,100982.78
2023-04-17T16:17:45.507Z,100979.28
2023-04-17T16:20:13.411Z,100989.94
2023-04-17T16:22:40.650Z,100976.88
2023-04-17T16:25:08.347Z,100983.59
2023-04-17T16:27:37.112Z,100982.91
2023-04-17T16:30:05.999Z,100990.75
2023-04-17T16:32:33.246Z,100991.84
2023-04-17T16:35:00.540Z,100987.91
2023-04-17T16:37:27.993Z,101009.84
2023-04-17T16:39:55.076Z,101000.06
2023-04-17T16:42:22.132Z,100997.34
2023-04-17T16:44:49.147Z,101008.44
2023-04-17T16:47:16.275Z,101005.75
2023-04-17T16:49:43.459Z,100999.28
2023-04-17T16:52:10.619Z,101009.53
2023-04-17T16:54:37.672Z,101014.00
2023-04-17T16:57:05.969Z,101003.41
2023-04-17T16:59:33.230Z,101015.50
2023-04-17T17:02:03.610Z,101016.47
2023-04-17T17:04:31.009Z,101021.84
2023-04-17T17:06:58.080Z,101029.13
2023-04-17T17:09:26.211Z,101020.94
2023-04-17T17:11:53.566Z,101025.59
2023-04-17T17:14:20.645Z,101023.31
2023-04-17T17:16:47.732Z,101027.09
2023-04-17T17:19:15.373Z,101031.63
2023-04-17T17:21:42.456Z,101031.88
2023-04-17T17:24:09.499Z,101038.22
2023-04-17T17:26:39.204Z,101040.00
2023-04-17T17:29:06.208Z,101035.56
2023-04-17T17:31:34.623Z,101026.56
2023-04-17T17:34:11.767Z,101035.19
2023-04-17T17:36:49.593Z,101048.38
2023-04-17T17:39:16.723Z,101057.00
2023-04-17T17:41:45.185Z,101043.41
2023-04-17T17:44:14.143Z,101046.66
2023-04-17T17:46:41.512Z,101044.59
2023-04-17T17:49:08.580Z,101056.88
2023-04-17T17:51:35.779Z,101052.75
2023-04-17T17:54:02.779Z,101054.34
2023-04-17T17:56:29.807Z,101057.63
2023-04-17T17:58:56.881Z,101057.81
2023-04-17T18:01:24.970Z,101049.22
2023-04-17T18:03:53.099Z,101056.06
2023-04-17T18:06:20.767Z,101068.72
2023-04-17T18:08:47.968Z,101069.09
2023-04-17T18:11:15.211Z,101071.00
2023-04-17T18:13:42.235Z,101076.56
2023-04-17T18:16:09.370Z,101071.38
2023-04-17T18:18:36.575Z,101067.53
2023-04-17T18:21:08.271Z,101070.44
2023-04-17T18:23:35.769Z,101076.63
2023-04-17T18:26:04.103Z,101076.06
2023-04-17T18:28:31.291Z,101071.31
2023-04-17T18:30:58.330Z,101085.56
2023-04-17T18:33:25.430Z,101101.47
2023-04-17T18:35:52.447Z,101094.31
2023-04-17T18:38:19.457Z,101089.34
2023-04-17T18:40:46.462Z,101084.50
2023-04-17T18:43:13.472Z,101093.34
2023-04-17T18:45:40.499Z,101093.59
2023-04-17T18:48:07.523Z,101089.47
2023-04-17T18:50:34.651Z,101087.91
2023-04-17T18:53:02.034Z,101101.41
2023-04-17T18:55:29.286Z,101100.06
2023-04-17T18:57:56.364Z,101103.28
2023-04-17T19:00:23.562Z,101099.22
2023-04-17T19:02:50.747Z,101101.97
2023-04-17T19:05:17.869Z,101103.50
2023-04-17T19:07:44.901Z,101104.69
2023-04-17T19:10:11.955Z,101095.00
2023-04-17T19:12:39.369Z,101107.44
2023-04-17T19:15:07.407Z,101097.78
2023-04-17T19:17:34.509Z,101093.03
2023-04-17T19:20:01.636Z,101103.16
2023-04-17T19:22:28.767Z,101098.63
2023-04-17T19:24:55.939Z,101098.00
2023-04-17T19:27:24.103Z,101109.25
2023-04-17T19:29:51.851Z,101109.09
2023-04-17T19:32:19.028Z,101105.25
2023-04-17T19:34:46.497Z,101101.28
2023-04-17T19:37:13.585Z,101103.44
2023-04-17T19:39:40.587Z,101106.94
2023-04-17T19:42:07.636Z,101098.44
2023-04-17T19:44:34.820Z,101107.19
2023-04-17T19:47:01.821Z,101110.75
2023-04-17T19:49:28.883Z,101102.53
2023-04-17T19:51:55.891Z,101098.28
2023-04-17T19:54:22.920Z,101097.66
2023-04-17T19:56:49.895Z,101095.31
2023-04-17T19:59:16.874Z,101109.63
2023-04-17T20:01:44.406Z,101107.03
2023-04-17T20:04:11.855Z,101104.97
2023-04-17T20:06:39.846Z,101108.38
2023-04-17T20:09:07.053Z,101098.91
2023-04-17T20:11:34.618Z,101114.00
2023-04-17T20:14:01.677Z,101101.47
2023-04-17T20:16:28.712Z,101106.78
2023-04-17T20:18:56.766Z,101101.91
2023-04-17T20:21:24.360Z,101107.75
2023-04-17T20:23:51.381Z,101098.84
2023-04-17T20:26:18.503Z,101111.16
2023-04-17T20:28:45.573Z,101107.19
2023-04-17T20:31:12.639Z,101114.06
2023-04-17T20:33:39.739Z,101117.31
2023-04-17T20:36:06.837Z,101112.50
2023-04-17T20:38:33.922Z,101107.63
2023-04-17T20:41:00.913Z,101112.13
2023-04-17T20:43:27.925Z,101105.88
2023-04-17T20:45:54.937Z,101103.19
2023-04-17T20:48:22.168Z,101110.53
2023-04-17T20:50:49.279Z,101104.34
2023-04-17T20:53:16.272Z,101113.50
2023-04-17T20:55:43.339Z,101110.66
2023-04-17T20:58:10.557Z,101118.63
2023-04-17T21:00:44.384Z,101120.66
2023-04-17T21:03:14.767Z,101124.13
2023-04-17T21:05:41.914Z,101127.16
2023-04-17T21:08:08.890Z,101124.69
2023-04-17T21:10:35.885Z,101129.19
2023-04-17T21:13:02.881Z,101121.00
2023-04-17T21:15:29.847Z,101123.28
2023-04-17T21:17:56.953Z,101130.44
2023-04-17T21:20:24.066Z,101129.47
2023-04-17T21:22:51.080Z,101132.38
2023-04-17T21:25:18.097Z,101128.63
2023-04-17T21:27:45.151Z,101132.84
2023-04-17T21:30:12.374Z,101144.47
2023-04-17T21:32:40.599Z,101135.78
2023-04-17T21:35:08.484Z,101138.75
2023-04-17T21:37:35.495Z,101135.59
2023-04-17T21:40:02.553Z,101138.69
2023-04-17T21:42:29.696Z,101135.19
2023-04-17T21:44:56.691Z,101125.53
2023-04-17T21:47:23.733Z,101125.94
2023-04-17T21:49:50.794Z,101133.00
2023-04-17T21:52:17.805Z,101136.94
2023-04-17T21:54:44.880Z,101133.69
2023-04-17T21:57:11.930Z,101124.88
2023-04-17T21:59:39.037Z,101135.94
2023-04-17T22:02:06.154Z,101139.13
2023-04-17T22:04:33.250Z,101136.84
2023-04-17T22:07:00.912Z,101131.94
2023-04-17T22:09:29.163Z,101133.84
2023-04-17T22:11:57.170Z,101135.56
2023-04-17T22:14:24.153Z,101136.31
2023-04-17T22:16:51.191Z,101137.16
2023-04-17T22:19:18.348Z,101135.81
2023-04-17T22:21:45.402Z,101138.44
2023-04-17T22:24:12.670Z,101130.06
2023-04-17T22:26:39.923Z,101134.75
2023-04-17T22:29:06.972Z,101131.31
2023-04-17T22:31:34.123Z,101133.56
2023-04-17T22:34:01.274Z,101135.06
2023-04-17T22:36:28.599Z,101134.47
2023-04-17T22:38:55.838Z,101138.22
2023-04-17T22:42:53.676Z,101142.66
2023-04-17T22:45:20.686Z,101140.59
2023-04-17T22:47:47.799Z,101152.94
2023-04-17T22:50:14.848Z,101154.19
2023-04-17T22:52:41.888Z,101141.94
2023-04-17T22:55:09.720Z,101138.56
2023-04-17T22:57:36.754Z,101150.09
2023-04-17T23:00:04.236Z,101139.81
2023-04-17T23:02:31.431Z,101140.56
2023-04-17T23:04:58.544Z,101133.72
2023-04-17T23:07:25.583Z,101138.38
2023-04-17T23:10:30.157Z,101136.75
2023-04-17T23:12:57.139Z,101133.13
2023-04-17T23:15:24.490Z,101126.88
2023-04-17T23:17:51.536Z,101122.59
2023-04-17T23:20:18.765Z,101129.16
2023-04-17T23:22:46.080Z,101129.34
2023-04-17T23:25:13.121Z,101131.38
2023-04-17T23:27:40.152Z,101126.78
2023-04-17T23:30:08.128Z,101129.81
2023-04-17T23:32:35.213Z,101126.88
2023-04-17T23:35:02.289Z,101134.94
2023-04-17T23:37:29.299Z,101123.84
2023-04-17T23:39:56.363Z,101130.13
2023-04-17T23:42:23.445Z,101125.16
2023-04-17T23:44:50.626Z,101129.44
2023-04-17T23:47:17.626Z,101127.88
2023-04-17T23:49:44.620Z,101132.25
2023-04-17T23:52:11.646Z,101133.47
2023-04-17T23:54:38.640Z,101130.69
2023-04-17T23:57:05.662Z,101129.84
2023-04-17T23:59:32.670Z,101137.00
